Paris, Canada
Current Conditions -  °F | °C
As of 3:00 PM on Friday 31 Oct 2014 (Local Time) from CYKF Reporting Station
Light Rain Light Rain  
Wind Chill: 40°   Ceiling: 1300
Heat Index: 43°   Visibility: 9mi
Dew Point: 41°   Wind: 5mph
Humidity: 93%   Direction: 110°ESE
Pressure: 29.88"   Gusts: NA
Location:  43.2°N, 80.38°W
Report Text: CYKF 311900Z AUTO 11004KT 9SM -RA SCT008 BKN013 OVC018 06/05 A2988 RMK PCPN 0.5MM PAST HR SLP125
Loading
Personal Weather Stations






























Interactive Weather Map
Tropical Storm Tracking
New forecast layout! Learn more

10-Day Weather Forecast

Advertisements
Track Severe Weather on mobile